header
chart

Reported and forecast weather at local airports

Important: not to be used for flight planning purposes.


EGBB METAR fetched   Thursday 19th Oct @ 08:09:15
EGBB 190650Z 15005KT 1500 BR OVC003 11/11 Q1006

EGCC METAR fetched   Thursday 19th Oct @ 08:09:11
EGCC 190650Z AUTO VRB02KT 9999 NCD 10/09 Q1005

EGGP METAR fetched   Thursday 19th Oct @ 08:09:12
EGGP 190650Z 14006KT 110V170 9999 FEW004 SCT012 10/10 Q1004

EGNH METAR fetched   Thursday 19th Oct @ 08:09:13
EGNH 190650Z 13013KT 7000 SCT008 11/10 Q1004

EGNM METAR fetched   Thursday 19th Oct @ 08:09:14
EGNM 190650Z VRB03KT 0200 R14/0250 FG VV/// 10/10 Q1005

EGOV METAR fetched   Thursday 19th Oct @ 08:09:16
EGOV 190650Z 16020KT 9999 SCT032 BKN060 14/12 Q1001 BLU TEMPO SCT016 WHT


EGBB TAF fetched   Thursday 19th Oct @ 08:09:15
TAF EGBB 190455Z 1906/2006 11004KT 3000 BR OVC003 BECMG 1906/1909 9999 NSW SCT016 PROB40 TEMPO 1915/1918 8000 -RA BKN009 BECMG 1918/1921 14015KT PROB40 TEMPO 1921/1924 7000 RA BKN012 TEMPO 2000/2006 18015G25KT 7000 RA BKN010

EGCC TAF fetched   Thursday 19th Oct @ 08:09:12
TAF EGCC 190455Z 1906/2012 08004KT 8000 OVC006 BECMG 1906/1909 9999 SCT016 BECMG 1912/1915 14010KT PROB30 TEMPO 1914/1918 15015G25KT -RA BKN014 TEMPO 1918/2006 15015G25KT 8000 -RA BKN010 PROB40 TEMPO 1918/2001 RA TEMPO 2010/2012 15015G25KT 7000 RA BKN008

EGGP TAF fetched   Thursday 19th Oct @ 08:09:13
TAF TAF EGGP 190455Z 1906/2006 14007KT 9000 OVC003 BECMG 1906/1909 9999 SCT016 TEMPO 1918/2006 8000 -RA BKN010 PROB40 TEMPO 1918/1924 15015G25KT RA

EGNM TAF fetched   Thursday 19th Oct @ 08:09:15
TAF TAF EGNM 190456Z 1906/2006 12007KT 0200 FG BKN001 TEMPO 1906/1910 1500 BR SCT001 BECMG 1910/1913 6000 NSW SCT004 BKN015 TEMPO 1913/2004 2000 RADZ BKN004 PROB30 TEMPO 1913/1921 0800 FG BKN001 BECMG 2003/2006 28010KT

EGOV TAF fetched   Thursday 19th Oct @ 08:09:16
TAF TAF EGOV 190525Z 1906/1918 04008KT CAVOK PROB30 TEMPO 1906/1912 6000 SHRA TEMPO 1912/1915 4000 +SHRA SCT020 BKN030CB PROB30 TEMPO 1913/1915 VRBG20G30KT 2500 TSGR BKN012

Every effort is made to ensure that this information is free from errors but as it is provided by a third party the accuracy of the reports cannot be guaranteed.